sensor_id;sensor_type;location;lat;lon;timestamp;pressure;altitude;pressure_sealevel;temperature;humidity
66176;BME280;52977;44.816;20.538;2023-04-24T00:00:32;99096.75;;;17.12;54.38
66176;BME280;52977;44.816;20.538;2023-04-24T00:02:58;99040.44;;;16.72;54.61
66176;BME280;52977;44.816;20.538;2023-04-24T00:05:25;99092.69;;;16.99;54.69
66176;BME280;52977;44.816;20.538;2023-04-24T00:07:51;99060.56;;;16.76;54.78
66176;BME280;52977;44.816;20.538;2023-04-24T00:10:21;99054.56;;;16.67;54.43
66176;BME280;52977;44.816;20.538;2023-04-24T00:12:47;99062.50;;;16.75;54.06
66176;BME280;52977;44.816;20.538;2023-04-24T00:15:14;99095.47;;;17.02;54.24
66176;BME280;52977;44.816;20.538;2023-04-24T00:17:40;99092.72;;;17.02;54.30
66176;BME280;52977;44.816;20.538;2023-04-24T00:20:07;99087.88;;;16.92;54.88
66176;BME280;52977;44.816;20.538;2023-04-24T00:22:33;99066.91;;;16.80;54.96
66176;BME280;52977;44.816;20.538;2023-04-24T00:24:59;99044.31;;;16.67;55.24
66176;BME280;52977;44.816;20.538;2023-04-24T00:27:26;99085.13;;;16.88;55.21
66176;BME280;52977;44.816;20.538;2023-04-24T00:29:52;99057.81;;;16.76;55.22
66176;BME280;52977;44.816;20.538;2023-04-24T00:32:18;99069.22;;;16.78;55.50
66176;BME280;52977;44.816;20.538;2023-04-24T00:34:45;99028.88;;;16.55;56.10
66176;BME280;52977;44.816;20.538;2023-04-24T00:37:11;99020.22;;;16.57;56.08
66176;BME280;52977;44.816;20.538;2023-04-24T00:39:37;99059.44;;;16.84;56.25
66176;BME280;52977;44.816;20.538;2023-04-24T00:42:03;99072.47;;;16.87;56.27
66176;BME280;52977;44.816;20.538;2023-04-24T00:44:35;99073.63;;;16.86;56.06
66176;BME280;52977;44.816;20.538;2023-04-24T00:47:01;99072.03;;;16.85;55.96
66176;BME280;52977;44.816;20.538;2023-04-24T00:49:27;99123.50;;;16.36;57.28
66176;BME280;52977;44.816;20.538;2023-04-24T00:51:54;99136.47;;;16.05;60.13
66176;BME280;52977;44.816;20.538;2023-04-24T00:54:20;99135.75;;;15.82;61.51
66176;BME280;52977;44.816;20.538;2023-04-24T00:56:47;99099.22;;;15.31;62.85
66176;BME280;52977;44.816;20.538;2023-04-24T00:59:16;99128.06;;;15.68;63.24
66176;BME280;52977;44.816;20.538;2023-04-24T01:01:44;99110.16;;;15.28;64.71
66176;BME280;52977;44.816;20.538;2023-04-24T01:04:11;99004.19;;;14.61;63.91
66176;BME280;52977;44.816;20.538;2023-04-24T01:06:39;99091.34;;;15.30;64.78
66176;BME280;52977;44.816;20.538;2023-04-24T01:09:06;99100.75;;;15.55;64.43
66176;BME280;52977;44.816;20.538;2023-04-24T01:11:36;99075.94;;;15.79;63.09
66176;BME280;52977;44.816;20.538;2023-04-24T01:14:04;99065.53;;;15.92;61.29
66176;BME280;52977;44.816;20.538;2023-04-24T01:16:30;99071.25;;;16.10;60.05
66176;BME280;52977;44.816;20.538;2023-04-24T01:18:56;99065.06;;;16.20;59.76
66176;BME280;52977;44.816;20.538;2023-04-24T01:21:23;99059.69;;;16.31;59.20
66176;BME280;52977;44.816;20.538;2023-04-24T01:23:51;99010.44;;;15.88;59.75
66176;BME280;52977;44.816;20.538;2023-04-24T01:26:18;99058.44;;;16.25;59.42
66176;BME280;52977;44.816;20.538;2023-04-24T01:28:46;99015.28;;;15.98;59.07
66176;BME280;52977;44.816;20.538;2023-04-24T01:31:14;99062.44;;;16.31;59.36
66176;BME280;52977;44.816;20.538;2023-04-24T01:33:42;99051.81;;;16.29;59.73
66176;BME280;52977;44.816;20.538;2023-04-24T01:36:10;99052.63;;;16.33;59.95
66176;BME280;52977;44.816;20.538;2023-04-24T01:38:37;99050.66;;;16.30;59.98
66176;BME280;52977;44.816;20.538;2023-04-24T01:41:03;99046.53;;;16.13;60.06
66176;BME280;52977;44.816;20.538;2023-04-24T01:43:30;99044.09;;;16.08;59.51
66176;BME280;52977;44.816;20.538;2023-04-24T01:45:57;99046.47;;;16.10;60.27
66176;BME280;52977;44.816;20.538;2023-04-24T01:48:23;99049.22;;;16.10;60.07
66176;BME280;52977;44.816;20.538;2023-04-24T01:50:48;99044.94;;;16.12;59.44
66176;BME280;52977;44.816;20.538;2023-04-24T01:53:14;99049.28;;;16.13;59.46
66176;BME280;52977;44.816;20.538;2023-04-24T01:55:41;99044.16;;;16.12;59.46
66176;BME280;52977;44.816;20.538;2023-04-24T01:58:07;99040.91;;;16.06;59.52
66176;BME280;52977;44.816;20.538;2023-04-24T02:00:33;99032.19;;;16.00;59.56
66176;BME280;52977;44.816;20.538;2023-04-24T02:02:58;99031.75;;;15.95;59.65
66176;BME280;52977;44.816;20.538;2023-04-24T02:05:25;99058.09;;;15.96;58.92
66176;BME280;52977;44.816;20.538;2023-04-24T02:07:51;99017.97;;;15.95;59.21
66176;BME280;52977;44.816;20.538;2023-04-24T02:10:17;98983.31;;;15.60;59.51
66176;BME280;52977;44.816;20.538;2023-04-24T02:12:44;99010.34;;;15.81;59.99
66176;BME280;52977;44.816;20.538;2023-04-24T02:15:10;98998.44;;;15.73;60.38
66176;BME280;52977;44.816;20.538;2023-04-24T02:17:38;99009.47;;;15.77;60.38
66176;BME280;52977;44.816;20.538;2023-04-24T02:20:08;99006.31;;;15.75;60.35
66176;BME280;52977;44.816;20.538;2023-04-24T02:22:34;98954.81;;;15.41;60.17
66176;BME280;52977;44.816;20.538;2023-04-24T02:25:01;98991.78;;;15.74;60.65
66176;BME280;52977;44.816;20.538;2023-04-24T02:27:27;98998.38;;;15.69;60.77
66176;BME280;52977;44.816;20.538;2023-04-24T02:29:54;98992.09;;;15.69;60.61
66176;BME280;52977;44.816;20.538;2023-04-24T02:32:21;98946.88;;;15.36;60.83
66176;BME280;52977;44.816;20.538;2023-04-24T02:34:47;98987.00;;;15.71;61.12
66176;BME280;52977;44.816;20.538;2023-04-24T02:37:13;98901.78;;;15.10;61.06
66176;BME280;52977;44.816;20.538;2023-04-24T02:39:42;98959.25;;;15.53;61.62
66176;BME280;52977;44.816;20.538;2023-04-24T02:42:08;98972.38;;;15.63;61.54
66176;BME280;52977;44.816;20.538;2023-04-24T02:44:35;98990.50;;;15.68;61.69
66176;BME280;52977;44.816;20.538;2023-04-24T02:47:01;99003.88;;;15.69;62.24
66176;BME280;52977;44.816;20.538;2023-04-24T02:49:27;98999.97;;;15.70;61.90
66176;BME280;52977;44.816;20.538;2023-04-24T02:51:53;98975.41;;;15.54;61.62
66176;BME280;52977;44.816;20.538;2023-04-24T02:54:20;98983.69;;;15.58;62.16
66176;BME280;52977;44.816;20.538;2023-04-24T02:56:46;98977.03;;;15.59;62.00
66176;BME280;52977;44.816;20.538;2023-04-24T02:59:12;98951.44;;;15.25;61.85
66176;BME280;52977;44.816;20.538;2023-04-24T03:01:38;98950.06;;;15.38;61.68
66176;BME280;52977;44.816;20.538;2023-04-24T03:04:04;98983.28;;;15.56;61.88
66176;BME280;52977;44.816;20.538;2023-04-24T03:06:30;98973.81;;;15.53;61.86
66176;BME280;52977;44.816;20.538;2023-04-24T03:08:58;98990.00;;;15.59;61.73
66176;BME280;52977;44.816;20.538;2023-04-24T03:11:24;98957.50;;;15.37;61.71
66176;BME280;52977;44.816;20.538;2023-04-24T03:13:50;98966.19;;;15.40;61.38
66176;BME280;52977;44.816;20.538;2023-04-24T03:16:16;98986.38;;;15.51;61.84
66176;BME280;52977;44.816;20.538;2023-04-24T03:18:43;98987.75;;;15.37;61.54
66176;BME280;52977;44.816;20.538;2023-04-24T03:21:09;98927.75;;;15.16;61.47
66176;BME280;52977;44.816;20.538;2023-04-24T03:23:35;98950.22;;;15.22;61.11
66176;BME280;52977;44.816;20.538;2023-04-24T03:26:02;98972.16;;;15.45;60.75
66176;BME280;52977;44.816;20.538;2023-04-24T03:28:29;98982.72;;;15.43;61.02
66176;BME280;52977;44.816;20.538;2023-04-24T03:31:03;98980.06;;;15.50;60.94
66176;BME280;52977;44.816;20.538;2023-04-24T03:33:33;98982.06;;;15.53;60.54
66176;BME280;52977;44.816;20.538;2023-04-24T03:36:03;98927.06;;;15.23;60.67
66176;BME280;52977;44.816;20.538;2023-04-24T03:38:39;98937.28;;;15.23;60.61
66176;BME280;52977;44.816;20.538;2023-04-24T03:41:38;98910.34;;;15.05;60.41
66176;BME280;52977;44.816;20.538;2023-04-24T03:44:11;98914.28;;;15.08;60.62
66176;BME280;52977;44.816;20.538;2023-04-24T03:46:37;98926.91;;;15.12;60.32
66176;BME280;52977;44.816;20.538;2023-04-24T03:49:04;98965.44;;;15.43;60.69
66176;BME280;52977;44.816;20.538;2023-04-24T03:51:34;98983.22;;;15.52;59.93
66176;BME280;52977;44.816;20.538;2023-04-24T03:54:24;98971.91;;;15.58;59.99
66176;BME280;52977;44.816;20.538;2023-04-24T03:56:52;98979.31;;;15.53;60.36
66176;BME280;52977;44.816;20.538;2023-04-24T03:59:19;98976.19;;;15.55;60.44
66176;BME280;52977;44.816;20.538;2023-04-24T04:01:49;98984.06;;;15.57;60.46
66176;BME280;52977;44.816;20.538;2023-04-24T04:04:16;98981.69;;;15.55;59.98
66176;BME280;52977;44.816;20.538;2023-04-24T04:06:44;98964.28;;;15.44;60.23
66176;BME280;52977;44.816;20.538;2023-04-24T04:09:10;98913.13;;;15.09;60.27
66176;BME280;52977;44.816;20.538;2023-04-24T04:11:36;98965.81;;;15.41;60.19
66176;BME280;52977;44.816;20.538;2023-04-24T04:14:02;98998.16;;;15.51;60.24
66176;BME280;52977;44.816;20.538;2023-04-24T04:16:30;98982.44;;;15.52;60.45
66176;BME280;52977;44.816;20.538;2023-04-24T04:19:02;98990.13;;;15.39;61.13
66176;BME280;52977;44.816;20.538;2023-04-24T04:21:29;98992.88;;;15.39;61.33
66176;BME280;52977;44.816;20.538;2023-04-24T04:24:08;98985.44;;;15.40;62.06
66176;BME280;52977;44.816;20.538;2023-04-24T04:26:38;98989.03;;;15.44;62.23
66176;BME280;52977;44.816;20.538;2023-04-24T04:29:07;99001.25;;;15.46;62.54
66176;BME280;52977;44.816;20.538;2023-04-24T04:31:36;98985.66;;;15.27;62.80
66176;BME280;52977;44.816;20.538;2023-04-24T04:34:07;98992.47;;;15.37;63.40
66176;BME280;52977;44.816;20.538;2023-04-24T04:36:33;99005.91;;;15.42;63.33
66176;BME280;52977;44.816;20.538;2023-04-24T04:39:10;98982.53;;;15.29;63.61
66176;BME280;52977;44.816;20.538;2023-04-24T04:41:52;99001.63;;;15.45;63.47
66176;BME280;52977;44.816;20.538;2023-04-24T04:44:20;99005.94;;;15.46;63.60
66176;BME280;52977;44.816;20.538;2023-04-24T04:46:46;99007.53;;;15.47;64.00
66176;BME280;52977;44.816;20.538;2023-04-24T04:49:21;98968.72;;;14.98;64.76
66176;BME280;52977;44.816;20.538;2023-04-24T04:51:50;98913.06;;;14.05;65.55
66176;BME280;52977;44.816;20.538;2023-04-24T04:54:17;99010.50;;;15.08;65.76
66176;BME280;52977;44.816;20.538;2023-04-24T04:56:43;99020.84;;;15.18;65.91
66176;BME280;52977;44.816;20.538;2023-04-24T04:59:09;99018.06;;;15.14;66.26
66176;BME280;52977;44.816;20.538;2023-04-24T05:01:37;99032.22;;;15.16;66.05
66176;BME280;52977;44.816;20.538;2023-04-24T05:04:05;99025.38;;;15.07;65.85
66176;BME280;52977;44.816;20.538;2023-04-24T05:06:31;99044.13;;;15.24;65.63
66176;BME280;52977;44.816;20.538;2023-04-24T05:08:58;99061.41;;;15.25;65.40
66176;BME280;52977;44.816;20.538;2023-04-24T05:11:34;99063.13;;;15.10;65.65
66176;BME280;52977;44.816;20.538;2023-04-24T05:14:01;99092.75;;;15.20;65.55
66176;BME280;52977;44.816;20.538;2023-04-24T05:16:36;99090.53;;;14.60;66.87
66176;BME280;52977;44.816;20.538;2023-04-24T05:19:04;99120.56;;;13.94;70.23
66176;BME280;52977;44.816;20.538;2023-04-24T05:21:35;99131.69;;;13.81;70.74
66176;BME280;52977;44.816;20.538;2023-04-24T05:24:01;99111.19;;;13.43;71.72
66176;BME280;52977;44.816;20.538;2023-04-24T05:26:51;99108.72;;;13.54;71.55
66176;BME280;52977;44.816;20.538;2023-04-24T05:29:22;99142.81;;;13.89;70.80
66176;BME280;52977;44.816;20.538;2023-04-24T05:31:48;99096.31;;;13.60;72.69
66176;BME280;52977;44.816;20.538;2023-04-24T05:34:15;99096.09;;;13.49;75.40
66176;BME280;52977;44.816;20.538;2023-04-24T05:36:44;99161.91;;;13.85;78.36
66176;BME280;52977;44.816;20.538;2023-04-24T05:39:10;99123.22;;;13.55;79.73
66176;BME280;52977;44.816;20.538;2023-04-24T05:41:36;99159.03;;;13.78;82.09
66176;BME280;52977;44.816;20.538;2023-04-24T05:44:02;99157.75;;;13.91;80.71
66176;BME280;52977;44.816;20.538;2023-04-24T05:46:27;99141.25;;;13.24;84.74
66176;BME280;52977;44.816;20.538;2023-04-24T05:48:55;99007.06;;;12.31;90.33
66176;BME280;52977;44.816;20.538;2023-04-24T05:51:20;99074.81;;;12.95;96.60
66176;BME280;52977;44.816;20.538;2023-04-24T05:53:46;99066.03;;;13.37;90.36
66176;BME280;52977;44.816;20.538;2023-04-24T05:56:12;99093.53;;;13.25;91.65
66176;BME280;52977;44.816;20.538;2023-04-24T05:58:38;99060.00;;;13.47;90.07
66176;BME280;52977;44.816;20.538;2023-04-24T06:01:04;99036.13;;;13.48;87.81
66176;BME280;52977;44.816;20.538;2023-04-24T06:03:31;99074.97;;;14.05;86.03
66176;BME280;52977;44.816;20.538;2023-04-24T06:05:57;99063.63;;;14.07;84.23
66176;BME280;52977;44.816;20.538;2023-04-24T06:08:24;99103.91;;;14.42;83.67
66176;BME280;52977;44.816;20.538;2023-04-24T06:10:51;99069.59;;;14.32;82.49
66176;BME280;52977;44.816;20.538;2023-04-24T06:13:20;99104.13;;;14.13;85.74
66176;BME280;52977;44.816;20.538;2023-04-24T06:16:09;99106.22;;;14.40;83.31
66176;BME280;52977;44.816;20.538;2023-04-24T06:18:39;99033.34;;;14.03;81.85
66176;BME280;52977;44.816;20.538;2023-04-24T06:21:06;99103.97;;;14.65;81.47
66176;BME280;52977;44.816;20.538;2023-04-24T06:23:31;99097.31;;;14.66;81.18
66176;BME280;52977;44.816;20.538;2023-04-24T06:25:59;99058.16;;;14.49;80.20
66176;BME280;52977;44.816;20.538;2023-04-24T06:28:24;99036.41;;;14.41;79.82
66176;BME280;52977;44.816;20.538;2023-04-24T06:30:51;99051.63;;;14.58;79.32
66176;BME280;52977;44.816;20.538;2023-04-24T06:33:17;99114.34;;;14.95;79.37
66176;BME280;52977;44.816;20.538;2023-04-24T06:35:43;99106.22;;;15.02;79.45
66176;BME280;52977;44.816;20.538;2023-04-24T06:38:09;99108.16;;;15.01;79.11
66176;BME280;52977;44.816;20.538;2023-04-24T06:40:35;99111.81;;;15.09;79.08
66176;BME280;52977;44.816;20.538;2023-04-24T06:43:02;99099.72;;;15.14;78.86
66176;BME280;52977;44.816;20.538;2023-04-24T06:45:29;99120.63;;;15.18;77.77
66176;BME280;52977;44.816;20.538;2023-04-24T06:47:55;99060.28;;;14.79;79.62
66176;BME280;52977;44.816;20.538;2023-04-24T06:50:22;99088.38;;;14.92;80.07
66176;BME280;52977;44.816;20.538;2023-04-24T06:52:48;99109.50;;;15.11;78.97
66176;BME280;52977;44.816;20.538;2023-04-24T06:55:14;99079.75;;;14.94;78.30
66176;BME280;52977;44.816;20.538;2023-04-24T06:57:43;99106.06;;;15.18;78.73
66176;BME280;52977;44.816;20.538;2023-04-24T07:00:10;99072.00;;;14.99;78.48
66176;BME280;52977;44.816;20.538;2023-04-24T07:02:36;99095.81;;;15.15;78.48
66176;BME280;52977;44.816;20.538;2023-04-24T07:05:04;99097.41;;;15.16;80.19
66176;BME280;52977;44.816;20.538;2023-04-24T07:07:30;99093.44;;;15.13;79.25
66176;BME280;52977;44.816;20.538;2023-04-24T07:09:57;99051.31;;;14.82;80.04
66176;BME280;52977;44.816;20.538;2023-04-24T07:12:23;99098.59;;;14.92;83.39
66176;BME280;52977;44.816;20.538;2023-04-24T07:14:50;99069.69;;;14.78;82.62
66176;BME280;52977;44.816;20.538;2023-04-24T07:17:16;99103.09;;;15.03;82.50
66176;BME280;52977;44.816;20.538;2023-04-24T07:19:43;99077.97;;;15.05;81.75
66176;BME280;52977;44.816;20.538;2023-04-24T07:22:09;99098.44;;;15.31;80.57
66176;BME280;52977;44.816;20.538;2023-04-24T07:24:37;99061.88;;;15.03;80.31
66176;BME280;52977;44.816;20.538;2023-04-24T07:27:04;99091.84;;;15.39;78.94
66176;BME280;52977;44.816;20.538;2023-04-24T07:29:30;99083.34;;;14.75;83.22
66176;BME280;52977;44.816;20.538;2023-04-24T07:31:56;99100.41;;;15.07;81.77
66176;BME280;52977;44.816;20.538;2023-04-24T07:34:22;99096.72;;;15.23;80.98
66176;BME280;52977;44.816;20.538;2023-04-24T07:36:48;99096.03;;;15.29;81.94
66176;BME280;52977;44.816;20.538;2023-04-24T07:39:14;99083.84;;;15.27;82.15
66176;BME280;52977;44.816;20.538;2023-04-24T07:41:40;99038.91;;;15.15;79.81
66176;BME280;52977;44.816;20.538;2023-04-24T07:44:06;99103.59;;;15.63;78.53
66176;BME280;52977;44.816;20.538;2023-04-24T07:46:32;99083.00;;;15.49;80.17
66176;BME280;52977;44.816;20.538;2023-04-24T07:48:58;99093.22;;;15.49;80.98
66176;BME280;52977;44.816;20.538;2023-04-24T07:51:27;99103.75;;;15.70;80.51
66176;BME280;52977;44.816;20.538;2023-04-24T07:53:54;99085.00;;;15.52;80.03
66176;BME280;52977;44.816;20.538;2023-04-24T07:56:23;99029.16;;;15.21;78.93
66176;BME280;52977;44.816;20.538;2023-04-24T07:58:49;99077.69;;;15.64;77.68
66176;BME280;52977;44.816;20.538;2023-04-24T08:01:16;99032.97;;;15.40;76.45
66176;BME280;52977;44.816;20.538;2023-04-24T08:03:42;99060.81;;;15.38;78.82
66176;BME280;52977;44.816;20.538;2023-04-24T08:06:08;99089.59;;;15.71;77.10
66176;BME280;52977;44.816;20.538;2023-04-24T08:08:34;99107.13;;;15.86;76.85
66176;BME280;52977;44.816;20.538;2023-04-24T08:11:00;99100.97;;;15.97;76.78
66176;BME280;52977;44.816;20.538;2023-04-24T08:13:27;99107.47;;;16.12;76.85
66176;BME280;52977;44.816;20.538;2023-04-24T08:15:53;99049.97;;;15.76;76.64
66176;BME280;52977;44.816;20.538;2023-04-24T08:18:19;99098.41;;;16.11;77.01
66176;BME280;52977;44.816;20.538;2023-04-24T08:20:45;99072.31;;;15.98;77.38
66176;BME280;52977;44.816;20.538;2023-04-24T08:23:11;99113.59;;;16.32;77.42
66176;BME280;52977;44.816;20.538;2023-04-24T08:25:37;99038.44;;;15.94;76.99
66176;BME280;52977;44.816;20.538;2023-04-24T08:28:06;99097.25;;;16.46;76.97
66176;BME280;52977;44.816;20.538;2023-04-24T08:30:34;99113.50;;;16.55;75.98
66176;BME280;52977;44.816;20.538;2023-04-24T08:33:00;99104.84;;;16.56;75.56
66176;BME280;52977;44.816;20.538;2023-04-24T08:35:26;99108.00;;;16.58;75.29
66176;BME280;52977;44.816;20.538;2023-04-24T08:37:52;99070.00;;;16.37;75.55
66176;BME280;52977;44.816;20.538;2023-04-24T08:40:23;99116.69;;;16.61;76.72
66176;BME280;52977;44.816;20.538;2023-04-24T08:42:54;99115.06;;;16.56;77.41
66176;BME280;52977;44.816;20.538;2023-04-24T08:45:40;99126.06;;;16.56;76.24
66176;BME280;52977;44.816;20.538;2023-04-24T08:48:07;99099.63;;;16.48;76.36
66176;BME280;52977;44.816;20.538;2023-04-24T08:50:34;99121.81;;;16.62;76.17
66176;BME280;52977;44.816;20.538;2023-04-24T08:53:00;99092.53;;;16.47;75.42
66176;BME280;52977;44.816;20.538;2023-04-24T08:55:29;99093.00;;;16.52;74.20
66176;BME280;52977;44.816;20.538;2023-04-24T08:57:56;99077.50;;;16.40;74.86
66176;BME280;52977;44.816;20.538;2023-04-24T09:00:23;99129.72;;;16.64;75.18
66176;BME280;52977;44.816;20.538;2023-04-24T09:02:50;99100.69;;;16.39;74.68
66176;BME280;52977;44.816;20.538;2023-04-24T09:05:17;99125.28;;;16.55;73.83
66176;BME280;52977;44.816;20.538;2023-04-24T09:07:45;99105.13;;;16.48;73.89
66176;BME280;52977;44.816;20.538;2023-04-24T09:10:14;99096.00;;;16.40;74.28
66176;BME280;52977;44.816;20.538;2023-04-24T09:12:41;99087.66;;;16.33;74.25
66176;BME280;52977;44.816;20.538;2023-04-24T09:15:08;99103.25;;;16.55;74.52
66176;BME280;52977;44.816;20.538;2023-04-24T09:17:34;99091.41;;;16.51;74.75
66176;BME280;52977;44.816;20.538;2023-04-24T09:20:01;99109.63;;;16.63;74.90
66176;BME280;52977;44.816;20.538;2023-04-24T09:22:31;99104.09;;;16.63;75.24
66176;BME280;52977;44.816;20.538;2023-04-24T09:25:07;99112.88;;;16.72;75.17
66176;BME280;52977;44.816;20.538;2023-04-24T09:27:35;99107.03;;;16.78;74.96
66176;BME280;52977;44.816;20.538;2023-04-24T09:30:02;99127.53;;;16.80;75.25
66176;BME280;52977;44.816;20.538;2023-04-24T09:32:29;99047.31;;;16.51;75.12
66176;BME280;52977;44.816;20.538;2023-04-24T09:35:14;99101.13;;;16.79;75.35
66176;BME280;52977;44.816;20.538;2023-04-24T09:37:42;99073.00;;;16.59;76.38
66176;BME280;52977;44.816;20.538;2023-04-24T09:40:20;99095.63;;;16.79;76.27
66176;BME280;52977;44.816;20.538;2023-04-24T09:42:57;99101.16;;;16.83;76.27
66176;BME280;52977;44.816;20.538;2023-04-24T09:45:37;99096.03;;;16.81;76.38
66176;BME280;52977;44.816;20.538;2023-04-24T09:48:04;99094.91;;;16.86;76.45
66176;BME280;52977;44.816;20.538;2023-04-24T09:50:32;99095.69;;;16.86;77.35
66176;BME280;52977;44.816;20.538;2023-04-24T09:53:04;99107.44;;;16.80;77.59
66176;BME280;52977;44.816;20.538;2023-04-24T09:55:31;99095.69;;;16.86;78.10
66176;BME280;52977;44.816;20.538;2023-04-24T09:58:00;99103.13;;;16.82;78.30
66176;BME280;52977;44.816;20.538;2023-04-24T10:00:28;99101.84;;;16.72;78.70
66176;BME280;52977;44.816;20.538;2023-04-24T10:02:58;99097.88;;;16.66;79.23
66176;BME280;52977;44.816;20.538;2023-04-24T10:05:27;99104.59;;;16.69;79.45
66176;BME280;52977;44.816;20.538;2023-04-24T10:08:08;99106.84;;;16.60;79.44
66176;BME280;52977;44.816;20.538;2023-04-24T10:10:38;99042.09;;;16.05;79.50
66176;BME280;52977;44.816;20.538;2023-04-24T10:13:07;99122.53;;;16.55;79.34
66176;BME280;52977;44.816;20.538;2023-04-24T10:15:33;99133.94;;;16.54;79.97
66176;BME280;52977;44.816;20.538;2023-04-24T10:17:59;99126.78;;;16.49;80.60
66176;BME280;52977;44.816;20.538;2023-04-24T10:20:28;99132.34;;;16.53;81.04
66176;BME280;52977;44.816;20.538;2023-04-24T10:22:56;99136.25;;;16.52;81.33
66176;BME280;52977;44.816;20.538;2023-04-24T10:25:25;99136.19;;;16.45;81.58
66176;BME280;52977;44.816;20.538;2023-04-24T10:27:52;99131.13;;;16.50;81.49
66176;BME280;52977;44.816;20.538;2023-04-24T10:30:19;99123.31;;;16.56;81.21
66176;BME280;52977;44.816;20.538;2023-04-24T10:32:46;99111.22;;;16.64;81.32
66176;BME280;52977;44.816;20.538;2023-04-24T10:35:13;99075.38;;;16.64;80.46
66176;BME280;52977;44.816;20.538;2023-04-24T10:37:43;99077.47;;;16.74;80.04
66176;BME280;52977;44.816;20.538;2023-04-24T10:40:11;99084.53;;;16.72;82.05
66176;BME280;52977;44.816;20.538;2023-04-24T10:42:40;99041.69;;;16.37;82.11
66176;BME280;52977;44.816;20.538;2023-04-24T10:45:11;99105.88;;;16.79;83.64
66176;BME280;52977;44.816;20.538;2023-04-24T10:47:42;99027.34;;;16.20;87.12
66176;BME280;52977;44.816;20.538;2023-04-24T10:50:10;99099.47;;;16.71;85.92
66176;BME280;52977;44.816;20.538;2023-04-24T10:52:49;99096.03;;;16.81;84.99
66176;BME280;52977;44.816;20.538;2023-04-24T10:55:40;99083.44;;;16.80;85.83
66176;BME280;52977;44.816;20.538;2023-04-24T10:58:06;99070.75;;;16.72;86.36
66176;BME280;52977;44.816;20.538;2023-04-24T11:00:36;99078.97;;;16.68;88.54
66176;BME280;52977;44.816;20.538;2023-04-24T11:03:30;99087.63;;;16.67;89.05
66176;BME280;52977;44.816;20.538;2023-04-24T11:06:00;99075.38;;;16.64;90.03
66176;BME280;52977;44.816;20.538;2023-04-24T11:11:08;99080.88;;;16.61;95.22
66176;BME280;52977;44.816;20.538;2023-04-24T11:21:47;99048.09;;;16.48;96.41
66176;BME280;52977;44.816;20.538;2023-04-24T11:29:47;99028.72;;;16.82;95.81
66176;BME280;52977;44.816;20.538;2023-04-24T11:34:45;99022.81;;;16.80;92.74
66176;BME280;52977;44.816;20.538;2023-04-24T11:37:12;99010.44;;;16.63;94.48
66176;BME280;52977;44.816;20.538;2023-04-24T11:39:38;99016.06;;;16.33;96.19
66176;BME280;52977;44.816;20.538;2023-04-24T11:42:04;98990.41;;;16.25;96.04
66176;BME280;52977;44.816;20.538;2023-04-24T11:44:33;98994.44;;;16.35;94.50
66176;BME280;52977;44.816;20.538;2023-04-24T11:47:00;98974.69;;;16.29;93.01
66176;BME280;52977;44.816;20.538;2023-04-24T11:49:26;98959.16;;;16.10;94.28
66176;BME280;52977;44.816;20.538;2023-04-24T11:51:56;98981.09;;;16.40;92.03
66176;BME280;52977;44.816;20.538;2023-04-24T11:54:22;98987.78;;;16.39;94.06
66176;BME280;52977;44.816;20.538;2023-04-24T11:56:50;98950.94;;;16.14;94.53
66176;BME280;52977;44.816;20.538;2023-04-24T11:59:15;98989.19;;;16.64;94.55
66176;BME280;52977;44.816;20.538;2023-04-24T12:01:48;98991.72;;;16.87;92.92
66176;BME280;52977;44.816;20.538;2023-04-24T12:04:17;98975.69;;;16.96;91.49
66176;BME280;52977;44.816;20.538;2023-04-24T12:07:03;98969.69;;;16.87;90.03
66176;BME280;52977;44.816;20.538;2023-04-24T12:09:47;98987.88;;;16.91;90.63
66176;BME280;52977;44.816;20.538;2023-04-24T12:12:15;98991.06;;;17.01;90.08
66176;BME280;52977;44.816;20.538;2023-04-24T12:14:53;98980.59;;;17.21;88.10
66176;BME280;52977;44.816;20.538;2023-04-24T12:17:28;98964.75;;;17.11;87.18
66176;BME280;52977;44.816;20.538;2023-04-24T12:20:03;98986.13;;;17.24;86.87
66176;BME280;52977;44.816;20.538;2023-04-24T12:22:43;98986.41;;;17.08;87.59
66176;BME280;52977;44.816;20.538;2023-04-24T12:25:11;98986.75;;;17.00;89.72
66176;BME280;52977;44.816;20.538;2023-04-24T12:27:36;98985.22;;;17.06;90.59
66176;BME280;52977;44.816;20.538;2023-04-24T12:30:04;98961.34;;;16.76;93.61
66176;BME280;52977;44.816;20.538;2023-04-24T12:32:31;98965.78;;;16.43;96.83
66176;BME280;52977;44.816;20.538;2023-04-24T12:34:58;98960.56;;;16.31;97.49
66176;BME280;52977;44.816;20.538;2023-04-24T12:37:25;98946.22;;;16.11;100.00
66176;BME280;52977;44.816;20.538;2023-04-24T12:40:04;98945.91;;;16.19;98.85
66176;BME280;52977;44.816;20.538;2023-04-24T12:42:34;98933.34;;;16.22;100.00
66176;BME280;52977;44.816;20.538;2023-04-24T12:45:04;98933.66;;;16.17;97.97
66176;BME280;52977;44.816;20.538;2023-04-24T12:47:31;98934.16;;;16.26;97.07
66176;BME280;52977;44.816;20.538;2023-04-24T12:49:57;98916.84;;;16.26;96.58
66176;BME280;52977;44.816;20.538;2023-04-24T12:52:24;98930.69;;;16.36;96.62
66176;BME280;52977;44.816;20.538;2023-04-24T12:54:54;98918.09;;;16.32;95.04
66176;BME280;52977;44.816;20.538;2023-04-24T12:57:21;98890.88;;;16.27;94.38
66176;BME280;52977;44.816;20.538;2023-04-24T12:59:47;98900.16;;;16.56;93.14
66176;BME280;52977;44.816;20.538;2023-04-24T13:02:13;98919.88;;;16.58;92.48
66176;BME280;52977;44.816;20.538;2023-04-24T13:04:40;98918.72;;;16.63;93.80
66176;BME280;52977;44.816;20.538;2023-04-24T13:07:06;98913.69;;;16.72;93.97
66176;BME280;52977;44.816;20.538;2023-04-24T13:09:34;98849.75;;;16.52;92.48
66176;BME280;52977;44.816;20.538;2023-04-24T13:12:00;98853.38;;;16.63;93.10
66176;BME280;52977;44.816;20.538;2023-04-24T13:14:27;98893.41;;;17.02;91.01